Time;durP1;ratioP1;P1;durP2;ratioP2;P2;SDS_P1;SDS_P2;PMS_P1;PMS_P2;Temp;Humidity;BMP_temperature;BMP_pressure;BME280_temperature;BME280_humidity;BME280_pressure;Samples;Min_cycle;Max_cycle;Signal;HPM_P1;HPM_P2
2022/09/12 00:01:35;;;;;;;0.83;0.83;;;;;;;14.84;93.34;95657.06;4387570;32;20220;-68
2022/09/12 00:04:01;;;;;;;0.67;0.63;;;;;;;14.90;92.36;95647.81;4389158;32;20247;-68
2022/09/12 00:06:30;;;;;;;1.63;0.63;;;;;;;14.97;93.86;95642.78;4406892;32;20252;-68
2022/09/12 00:08:59;;;;;;;0.20;0.20;;;;;;;14.82;93.63;95648.56;4391563;32;20189;-68
2022/09/12 00:11:25;;;;;;;0.50;0.50;;;;;;;14.85;93.35;95647.16;4393136;32;20196;-68
2022/09/12 00:13:54;;;;;;;0.87;0.77;;;;;;;14.63;93.63;95653.41;4398727;32;20173;-67
2022/09/12 00:16:22;;;;;;;0.33;0.33;;;;;;;14.96;93.81;95641.22;4393313;32;20233;-67
2022/09/12 00:18:47;;;;;;;0.40;0.40;;;;;;;14.85;92.74;95647.97;4384281;32;20248;-67
2022/09/12 00:21:15;;;;;;;0.57;0.57;;;;;;;14.84;92.26;95645.59;4401346;32;20196;-68
2022/09/12 00:23:40;;;;;;;0.40;0.40;;;;;;;14.95;93.97;95639.66;4393099;32;20195;-68
2022/09/12 00:26:06;;;;;;;0.60;0.60;;;;;;;15.06;93.21;95643.59;4395323;32;20195;-68
2022/09/12 00:28:33;;;;;;;7.03;1.07;;;;;;;15.13;92.54;95640.47;4389191;32;20195;-68
2022/09/12 00:31:04;;;;;;;0.30;0.30;;;;;;;14.94;92.85;95638.09;4398154;32;20184;-68
2022/09/12 00:33:29;;;;;;;0.60;0.57;;;;;;;15.00;93.81;95630.69;4393815;32;20189;-68
2022/09/12 00:35:55;;;;;;;0.50;0.50;;;;;;;14.91;93.00;95630.69;4402976;32;20187;-68
2022/09/12 00:38:20;;;;;;;0.40;0.40;;;;;;;15.00;93.59;95634.13;4397578;32;20217;-67
2022/09/12 00:40:46;;;;;;;1.13;1.03;;;;;;;14.83;92.97;95625.31;4398316;32;20239;-67
2022/09/12 00:43:28;;;;;;;2.47;0.83;;;;;;;15.02;93.60;95628.50;4399467;32;20188;-68
2022/09/12 00:45:56;;;;;;;0.37;0.37;;;;;;;15.00;93.03;95625.34;4404424;32;20184;-67
2022/09/12 00:48:30;;;;;;;0.50;0.50;;;;;;;14.96;93.12;95622.53;4392340;32;20195;-67
2022/09/12 00:50:55;;;;;;;0.50;0.50;;;;;;;15.07;92.58;95620.31;4398727;32;20427;-68
2022/09/12 00:53:21;;;;;;;0.40;0.40;;;;;;;14.86;92.66;95614.03;4398135;32;20203;-68
2022/09/12 00:55:50;;;;;;;1.53;0.50;;;;;;;14.91;93.32;95622.69;4402011;32;20188;-67
2022/09/12 00:58:23;;;;;;;0.87;0.87;;;;;;;14.96;93.40;95611.84;4394747;32;20192;-67
2022/09/12 01:00:49;;;;;;;0.43;0.43;;;;;;;14.99;92.52;95619.22;4406010;32;20243;-68
2022/09/12 01:03:20;;;;;;;0.40;0.40;;;;;;;14.84;92.56;95617.00;4391247;32;20180;-67
2022/09/12 01:06:04;;;;;;;0.40;0.40;;;;;;;14.71;92.96;95608.03;4397092;32;20238;-67
2022/09/12 01:08:32;;;;;;;0.10;0.10;;;;;;;14.82;92.97;95600.50;4400880;32;20263;-68
2022/09/12 01:10:57;;;;;;;0.50;0.50;;;;;;;14.84;93.54;95608.19;4388630;32;20227;-68
2022/09/12 01:13:45;;;;;;;0.20;0.20;;;;;;;14.87;93.24;95597.69;4393709;32;20189;-67
2022/09/12 01:16:10;;;;;;;0.57;0.57;;;;;;;14.79;93.09;95599.22;4383755;32;20254;-68
2022/09/12 01:19:04;;;;;;;0.40;0.40;;;;;;;14.82;93.37;95591.69;4396334;32;20196;-68
2022/09/12 01:21:54;;;;;;;6.47;5.90;;;;;;;14.68;92.54;95595.31;4394567;32;20232;-67
2022/09/12 01:24:32;;;;;;;1.70;0.70;;;;;;;14.58;93.26;95598.25;4394996;32;20218;-66
2022/09/12 01:27:34;;;;;;;0.50;0.50;;;;;;;14.58;94.39;95592.91;4395143;32;20196;-66
2022/09/12 01:30:18;;;;;;;0.57;0.57;;;;;;;14.85;93.14;95589.19;4396834;32;20280;-66
2022/09/12 01:33:05;;;;;;;0.10;0.10;;;;;;;14.75;91.99;95592.19;4409737;32;20188;-66
2022/09/12 01:35:42;;;;;;;0.20;0.20;;;;;;;14.60;91.46;95582.72;4384490;32;20192;-66
2022/09/12 01:38:22;;;;;;;0.30;0.30;;;;;;;14.59;93.52;95583.03;4397175;32;20241;-66
2022/09/12 01:40:52;;;;;;;0.20;0.20;;;;;;;14.80;93.46;95589.34;4404521;32;20192;-66
2022/09/12 01:43:31;;;;;;;3.10;1.27;;;;;;;14.54;92.52;95583.19;4407237;32;20184;-65
2022/09/12 01:46:09;;;;;;;0.97;0.60;;;;;;;14.68;93.14;95581.16;4396018;32;20223;-67
2022/09/12 01:48:42;;;;;;;0.40;0.40;;;;;;;14.77;92.23;95573.94;4394037;32;20267;-66
2022/09/12 01:51:10;;;;;;;0.73;0.73;;;;;;;14.75;91.70;95581.50;4410954;32;20200;-67
2022/09/12 01:54:02;;;;;;;0.83;0.83;;;;;;;14.57;92.60;95580.66;4407022;32;20192;-66
2022/09/12 01:56:32;;;;;;;0.63;0.63;;;;;;;14.54;90.90;95580.53;4377729;32;20210;-66
2022/09/12 01:59:08;;;;;;;0.90;0.87;;;;;;;14.56;92.55;95573.75;4400262;32;20220;-66
2022/09/12 02:01:40;;;;;;;0.47;0.47;;;;;;;14.50;91.91;95568.88;4389612;32;20313;-67
2022/09/12 02:04:20;;;;;;;0.20;0.20;;;;;;;14.57;91.85;95564.66;4399374;32;20185;-67
2022/09/12 02:06:51;;;;;;;0.30;0.30;;;;;;;14.64;92.37;95566.88;4393699;32;20206;-66
2022/09/12 02:09:25;;;;;;;0.50;0.50;;;;;;;14.59;91.07;95561.66;4395960;32;20290;-66
2022/09/12 02:11:56;;;;;;;0.30;0.30;;;;;;;14.57;92.16;95558.50;4394299;32;20192;-66
2022/09/12 02:14:30;;;;;;;0.40;0.40;;;;;;;14.57;92.40;95563.84;4400682;32;20202;-67
2022/09/12 02:17:08;;;;;;;0.10;0.10;;;;;;;14.52;93.56;95556.03;4391535;32;20250;-66
2022/09/12 02:19:40;;;;;;;0.30;0.30;;;;;;;14.57;92.76;95555.84;4401352;32;20341;-67
2022/09/12 02:22:11;;;;;;;0.43;0.43;;;;;;;14.58;92.54;95544.84;4400336;32;20207;-67
2022/09/12 02:24:41;;;;;;;0.40;0.40;;;;;;;14.72;92.31;95544.72;4394254;32;20188;-66
2022/09/12 02:27:14;;;;;;;0.27;0.27;;;;;;;14.41;91.59;95548.28;4394002;32;20189;-67
2022/09/12 02:29:40;;;;;;;0.20;0.20;;;;;;;14.20;92.09;95539.28;4408171;32;20206;-66
2022/09/12 02:32:21;;;;;;;0.30;0.30;;;;;;;14.49;93.52;95540.63;4401423;32;20176;-67
2022/09/12 02:34:58;;;;;;;0.40;0.40;;;;;;;14.48;92.45;95539.03;4395319;32;20235;-66
2022/09/12 02:37:42;;;;;;;0.30;0.30;;;;;;;14.49;92.28;95541.41;4399979;32;20187;-66
2022/09/12 02:40:08;;;;;;;0.73;0.67;;;;;;;14.26;91.95;95543.38;4395218;32;20196;-66
2022/09/12 02:42:35;;;;;;;0.30;0.30;;;;;;;14.54;92.34;95545.81;4399638;32;20347;-66
2022/09/12 02:45:02;;;;;;;0.70;0.50;;;;;;;14.40;90.92;95543.25;4391493;32;20219;-67
2022/09/12 02:47:36;;;;;;;0.60;0.60;;;;;;;14.44;91.33;95538.88;4390208;32;20185;-66
2022/09/12 02:50:03;;;;;;;0.70;0.70;;;;;;;14.53;92.20;95530.91;4399188;32;20196;-67
2022/09/12 02:52:29;;;;;;;0.33;0.33;;;;;;;14.47;92.28;95534.81;4396168;32;20185;-70
2022/09/12 02:54:56;;;;;;;0.30;0.30;;;;;;;14.51;91.93;95531.22;4395850;32;20207;-69
2022/09/12 02:57:22;;;;;;;0.70;0.70;;;;;;;14.48;91.43;95534.50;4392777;32;20188;-70
2022/09/12 02:59:49;;;;;;;0.10;0.10;;;;;;;14.43;92.16;95535.44;4396992;32;20259;-67
2022/09/12 03:02:27;;;;;;;0.60;0.60;;;;;;;14.51;92.33;95528.53;4394859;32;20223;-66
2022/09/12 03:05:18;;;;;;;0.20;0.20;;;;;;;14.38;92.14;95534.75;4401347;32;20199;-67
2022/09/12 03:08:05;;;;;;;0.23;0.23;;;;;;;14.28;92.91;95535.06;4390965;32;20206;-66
2022/09/12 03:10:36;;;;;;;0.40;0.40;;;;;;;14.27;92.39;95533.50;4424634;32;20244;-67
2022/09/12 03:13:27;;;;;;;0.30;0.30;;;;;;;14.24;92.19;95532.22;4398145;32;20263;-66
2022/09/12 03:16:25;;;;;;;2.10;0.50;;;;;;;14.01;91.37;95533.41;4390921;32;20229;-66
2022/09/12 03:19:01;;;;;;;0.37;0.37;;;;;;;14.09;92.98;95522.78;4400347;32;20192;-66
2022/09/12 03:21:44;;;;;;;0.90;0.33;;;;;;;14.19;93.04;95524.34;4398947;32;20188;-67
2022/09/12 03:24:28;;;;;;;0.60;0.60;;;;;;;13.98;92.42;95523.34;4396114;32;20255;-67
2022/09/12 03:26:59;;;;;;;0.13;0.13;;;;;;;14.15;93.12;95523.41;4393565;32;20234;-67
2022/09/12 03:29:26;;;;;;;0.50;0.50;;;;;;;14.13;93.17;95520.28;4392626;32;20184;-67
2022/09/12 03:31:57;;;;;;;0.30;0.30;;;;;;;14.18;92.56;95520.13;4393396;32;20188;-66
2022/09/12 03:34:24;;;;;;;0.27;0.27;;;;;;;14.33;91.95;95522.38;4396358;32;20245;-67
2022/09/12 03:36:51;;;;;;;0.40;0.40;;;;;;;14.36;92.02;95523.59;4393996;32;20203;-67
2022/09/12 03:39:17;;;;;;;0.27;0.27;;;;;;;14.32;91.67;95518.13;4401637;32;20302;-66
2022/09/12 03:41:42;;;;;;;0.20;0.20;;;;;;;14.11;91.19;95519.81;4391106;32;20180;-67
2022/09/12 03:44:08;;;;;;;0.67;0.67;;;;;;;13.99;91.10;95522.25;4396978;32;20230;-67
2022/09/12 03:46:33;;;;;;;0.40;0.40;;;;;;;14.23;92.17;95517.31;4398517;32;20290;-66
2022/09/12 03:48:59;;;;;;;0.40;0.40;;;;;;;13.86;91.81;95528.50;4398662;32;20188;-67
2022/09/12 03:51:24;;;;;;;0.20;0.20;;;;;;;14.15;92.34;95520.72;4395727;32;20292;-67
2022/09/12 03:53:50;;;;;;;0.30;0.30;;;;;;;13.91;91.86;95523.81;4403089;32;20203;-67
2022/09/12 03:56:16;;;;;;;0.70;0.70;;;;;;;13.91;92.51;95520.37;4404867;32;20188;-66
2022/09/12 03:58:42;;;;;;;0.47;0.47;;;;;;;14.18;92.04;95525.44;4398848;32;20222;-66
2022/09/12 04:01:15;;;;;;;0.47;0.47;;;;;;;14.17;92.05;95523.88;4393157;32;20184;-67
2022/09/12 04:03:43;;;;;;;0.60;0.60;;;;;;;14.26;91.54;95516.69;4403284;32;20227;-66
2022/09/12 04:06:10;;;;;;;0.17;0.17;;;;;;;14.04;91.22;95520.25;4389611;32;20180;-66
2022/09/12 04:08:36;;;;;;;0.40;0.40;;;;;;;13.87;91.92;95522.06;4395207;32;20192;-66
2022/09/12 04:11:07;;;;;;;0.57;0.57;;;;;;;13.83;92.52;95527.25;4407152;32;20210;-67
2022/09/12 04:13:34;;;;;;;0.40;0.40;;;;;;;13.81;91.92;95531.31;4390756;32;20207;-66
2022/09/12 04:16:00;;;;;;;0.40;0.40;;;;;;;13.75;92.25;95528.75;4402041;32;20192;-67
2022/09/12 04:18:26;;;;;;;0.30;0.30;;;;;;;13.68;91.51;95533.78;4395113;32;20211;-67
2022/09/12 04:20:52;;;;;;;0.53;0.53;;;;;;;13.79;92.03;95528.16;4391199;32;20196;-66
2022/09/12 04:23:17;;;;;;;0.30;0.30;;;;;;;13.88;91.76;95526.31;4412528;32;20241;-66
2022/09/12 04:25:42;;;;;;;0.40;0.40;;;;;;;13.80;91.24;95524.41;4402620;32;20196;-67
2022/09/12 04:28:08;;;;;;;0.27;0.27;;;;;;;13.49;90.87;95527.87;4390063;32;20185;-67
2022/09/12 04:30:33;;;;;;;0.30;0.30;;;;;;;13.70;92.66;95528.13;4390987;32;22105;-67
2022/09/12 04:32:59;;;;;;;1.87;0.93;;;;;;;13.64;92.73;95534.69;4384941;32;20188;-66
2022/09/12 04:35:25;;;;;;;0.20;0.20;;;;;;;13.86;91.99;95528.50;4392353;32;20272;-66
2022/09/12 04:37:51;;;;;;;0.60;0.60;;;;;;;13.60;90.59;95536.38;4394377;32;20188;-66
2022/09/12 04:40:16;;;;;;;0.10;0.10;;;;;;;13.73;92.48;95536.28;4390951;32;20223;-66
2022/09/12 04:42:41;;;;;;;0.10;0.10;;;;;;;13.83;91.85;95526.44;4399994;32;20233;-66
2022/09/12 04:45:07;;;;;;;0.40;0.40;;;;;;;13.57;90.48;95527.13;4392108;32;20188;-67
2022/09/12 04:47:32;;;;;;;0.27;0.27;;;;;;;13.85;92.09;95529.59;4393372;32;20188;-67
2022/09/12 04:49:58;;;;;;;0.27;0.27;;;;;;;13.76;90.98;95521.56;4395349;32;20187;-67
2022/09/12 04:52:23;;;;;;;0.50;0.50;;;;;;;13.60;91.88;95529.19;4394920;32;20192;-66
2022/09/12 04:54:49;;;;;;;0.80;0.80;;;;;;;13.73;91.64;95525.63;4392412;32;20187;-67
2022/09/12 04:57:14;;;;;;;0.33;0.33;;;;;;;13.73;91.76;95530.16;4393064;32;20195;-66
2022/09/12 04:59:40;;;;;;;0.47;0.47;;;;;;;13.67;92.44;95523.41;4407404;32;20197;-67
2022/09/12 05:02:05;;;;;;;0.37;0.37;;;;;;;13.81;92.04;95528.63;4403310;32;20176;-67
2022/09/12 05:04:30;;;;;;;0.33;0.30;;;;;;;13.85;90.70;95525.06;4396287;32;20198;-66
2022/09/12 05:06:56;;;;;;;0.60;0.60;;;;;;;13.64;91.49;95530.16;4397547;32;20234;-66
2022/09/12 05:09:21;;;;;;;0.57;0.57;;;;;;;13.69;90.82;95540.69;4393360;32;20188;-66
2022/09/12 05:11:47;;;;;;;0.50;0.50;;;;;;;13.79;90.90;95534.28;4392684;32;20219;-67
2022/09/12 05:14:12;;;;;;;2.33;0.80;;;;;;;13.76;90.41;95530.34;4396297;32;20183;-66
2022/09/12 05:16:37;;;;;;;0.40;0.40;;;;;;;13.66;90.34;95529.84;4397802;32;20184;-67
2022/09/12 05:19:03;;;;;;;0.50;0.50;;;;;;;13.97;90.58;95535.13;4400004;32;20243;-67
2022/09/12 05:21:29;;;;;;;0.50;0.50;;;;;;;14.03;89.97;95542.69;4392271;32;20180;-66
2022/09/12 05:23:56;;;;;;;0.60;0.60;;;;;;;13.76;89.96;95542.87;4401660;32;20211;-66
2022/09/12 05:26:22;;;;;;;0.30;0.30;;;;;;;13.91;90.12;95536.38;4395250;32;20177;-66
2022/09/12 05:28:49;;;;;;;2.90;1.23;;;;;;;13.67;89.93;95545.53;4397910;32;20242;-66
2022/09/12 05:31:17;;;;;;;0.57;0.57;;;;;;;13.73;90.91;95544.28;4379942;32;20195;-65
2022/09/12 05:33:46;;;;;;;0.27;0.27;;;;;;;13.92;90.32;95545.94;4386652;32;20276;-66
2022/09/12 05:36:14;;;;;;;0.40;0.40;;;;;;;13.94;90.49;95551.75;4390230;32;20193;-66
2022/09/12 05:38:40;;;;;;;0.50;0.50;;;;;;;13.78;90.44;95546.03;4391499;32;20208;-67
2022/09/12 05:41:06;;;;;;;0.13;0.13;;;;;;;14.00;90.53;95547.84;4392956;32;20195;-67
2022/09/12 05:43:37;;;;;;;0.77;0.77;;;;;;;13.80;90.07;95548.41;4397906;32;20188;-67
2022/09/12 05:46:11;;;;;;;0.87;0.83;;;;;;;13.96;90.14;95552.22;4394073;32;20188;-66
2022/09/12 05:48:38;;;;;;;0.63;0.40;;;;;;;13.83;90.77;95558.44;4389808;32;20183;-66
2022/09/12 05:51:19;;;;;;;0.57;0.57;;;;;;;13.72;89.82;95553.38;4401943;32;22367;-66
2022/09/12 05:53:51;;;;;;;0.93;0.93;;;;;;;13.84;90.53;95554.69;4398887;32;20184;-66
2022/09/12 05:56:19;;;;;;;2.47;1.17;;;;;;;13.48;90.57;95550.31;4395146;32;20227;-66
2022/09/12 05:58:50;;;;;;;1.57;0.80;;;;;;;13.67;92.01;95558.06;4393733;32;20202;-66
2022/09/12 06:01:18;;;;;;;0.53;0.53;;;;;;;13.77;91.69;95555.13;4402646;32;20180;-67
2022/09/12 06:03:49;;;;;;;0.40;0.40;;;;;;;13.76;90.02;95558.88;4419472;32;20208;-67
2022/09/12 06:06:17;;;;;;;4.13;0.77;;;;;;;13.75;88.15;95559.97;4395012;32;20207;-65
2022/09/12 06:08:45;;;;;;;0.57;0.57;;;;;;;13.46;89.70;95552.47;4395545;32;20184;-66
2022/09/12 06:11:13;;;;;;;1.03;0.80;;;;;;;13.40;89.19;95549.16;4399203;32;20183;-66
2022/09/12 06:13:41;;;;;;;1.37;0.60;;;;;;;13.26;89.94;95561.78;4398885;32;20219;-66
2022/09/12 06:16:09;;;;;;;0.77;0.77;;;;;;;13.08;90.36;95558.19;4395327;32;20200;-67
2022/09/12 06:18:35;;;;;;;0.53;0.53;;;;;;;13.26;92.58;95553.00;4389099;32;20313;-67
2022/09/12 06:21:05;;;;;;;0.53;0.53;;;;;;;12.89;90.90;95554.88;4389837;32;20203;-67
2022/09/12 06:23:31;;;;;;;0.90;0.90;;;;;;;12.97;93.00;95553.38;4402748;32;20184;-67
2022/09/12 06:25:56;;;;;;;0.60;0.60;;;;;;;13.37;93.85;95556.97;4393696;32;20367;-67
2022/09/12 06:28:22;;;;;;;0.90;0.63;;;;;;;13.46;92.88;95555.16;4395508;32;20184;-67
2022/09/12 06:30:47;;;;;;;1.50;0.77;;;;;;;13.64;92.80;95556.00;4398665;32;20243;-67
2022/09/12 06:33:14;;;;;;;0.70;0.70;;;;;;;13.52;89.96;95555.78;4402848;32;20192;-68
2022/09/12 06:35:39;;;;;;;0.97;0.90;;;;;;;13.28;91.48;95548.94;4391336;32;20192;-67
2022/09/12 06:38:05;;;;;;;1.20;1.10;;;;;;;13.63;92.09;95547.22;4399275;32;20207;-67
2022/09/12 06:40:31;;;;;;;1.43;0.83;;;;;;;13.65;92.21;95549.59;4408110;32;20208;-67
2022/09/12 06:42:56;;;;;;;0.87;0.87;;;;;;;13.77;91.47;95552.47;4395544;32;20207;-67
2022/09/12 06:45:21;;;;;;;0.50;0.50;;;;;;;13.55;91.14;95550.63;4407268;32;20191;-66
2022/09/12 06:47:47;;;;;;;0.13;0.13;;;;;;;13.53;90.45;95552.03;4396594;32;20270;-67
2022/09/12 06:50:13;;;;;;;0.30;0.30;;;;;;;13.54;89.29;95546.38;4390148;32;20192;-67
2022/09/12 06:52:38;;;;;;;1.17;0.87;;;;;;;13.48;88.91;95550.31;4400750;32;20184;-67
2022/09/12 06:55:04;;;;;;;0.40;0.40;;;;;;;13.70;92.00;95552.91;4392689;32;20211;-66
2022/09/12 06:57:31;;;;;;;1.30;0.57;;;;;;;13.73;91.17;95554.16;4387307;32;20180;-66
2022/09/12 06:59:57;;;;;;;0.63;0.63;;;;;;;14.00;92.52;95551.31;4390064;32;20230;-66
2022/09/12 07:02:24;;;;;;;0.90;0.67;;;;;;;14.20;92.35;95546.50;4386430;32;20199;-66
2022/09/12 07:04:50;;;;;;;1.57;1.20;;;;;;;14.31;92.79;95548.56;4396520;32;20231;-65
2022/09/12 07:07:16;;;;;;;0.63;0.63;;;;;;;14.28;91.98;95551.06;4394408;32;20180;-66
2022/09/12 07:09:41;;;;;;;0.97;0.97;;;;;;;14.45;92.08;95545.78;4394542;32;20207;-66
2022/09/12 07:12:07;;;;;;;0.87;0.87;;;;;;;14.51;92.77;95547.22;4392483;32;20196;-65
2022/09/12 07:14:32;;;;;;;0.30;0.30;;;;;;;14.65;92.89;95555.09;4392319;32;20203;-66
2022/09/12 07:16:58;;;;;;;0.73;0.73;;;;;;;14.76;92.40;95551.78;4402123;32;20210;-65
2022/09/12 07:19:23;;;;;;;2.57;0.93;;;;;;;14.78;92.66;95549.59;4400160;32;20214;-66
2022/09/12 07:21:49;;;;;;;0.73;0.73;;;;;;;14.78;91.69;95548.78;4394663;32;20216;-66
2022/09/12 07:24:14;;;;;;;2.03;0.83;;;;;;;14.89;91.28;95550.06;4412023;32;20184;-67
2022/09/12 07:26:40;;;;;;;0.40;0.40;;;;;;;15.09;91.34;95552.09;4386370;32;20195;-66
2022/09/12 07:29:09;;;;;;;0.60;0.60;;;;;;;15.21;90.51;95546.09;4391329;32;20200;-66
2022/09/12 07:31:34;;;;;;;1.73;1.63;;;;;;;15.20;89.26;95554.44;4407303;32;20267;-59
2022/09/12 07:34:05;;;;;;;4.43;1.03;;;;;;;15.56;90.89;95543.41;4396535;32;20188;-59
2022/09/12 07:36:30;;;;;;;0.77;0.73;;;;;;;16.15;92.38;95550.41;4401668;32;20230;-59
2022/09/12 07:38:56;;;;;;;1.27;1.13;;;;;;;16.45;88.20;95550.41;4393862;32;20196;-59
2022/09/12 07:41:25;;;;;;;1.20;1.00;;;;;;;16.84;86.64;95554.56;4393976;32;20100;-59
2022/09/12 07:43:56;;;;;;;1.27;1.10;;;;;;;17.06;84.84;95556.13;4394616;32;20211;-59
2022/09/12 07:46:22;;;;;;;7.17;1.17;;;;;;;17.23;83.34;95560.59;4397146;32;20241;-58
2022/09/12 07:48:55;;;;;;;2.57;2.10;;;;;;;17.42;80.53;95564.34;4400521;32;20242;-59
2022/09/12 07:51:22;;;;;;;25.67;2.17;;;;;;;17.55;79.89;95561.69;4402307;32;20184;-58
2022/09/12 07:53:50;;;;;;;1.30;1.30;;;;;;;17.71;79.49;95568.00;4395612;32;20295;-58
2022/09/12 07:56:16;;;;;;;0.97;0.97;;;;;;;17.75;78.48;95569.69;4389255;32;20204;-59
2022/09/12 07:58:42;;;;;;;2.27;1.33;;;;;;;17.84;78.69;95565.03;4400622;32;20250;-59
2022/09/12 08:01:18;;;;;;;1.10;1.10;;;;;;;17.87;78.28;95566.28;4411705;32;20212;-58
2022/09/12 08:04:07;;;;;;;0.30;0.30;;;;;;;17.95;77.93;95567.28;4386191;32;20242;-66
2022/09/12 08:06:35;;;;;;;0.97;0.97;;;;;;;17.76;75.01;95565.91;4391475;32;20265;-60
2022/09/12 08:09:04;;;;;;;2.57;0.83;;;;;;;17.54;73.31;95558.22;4373467;32;20204;-60
2022/09/12 08:11:29;;;;;;;0.10;0.10;;;;;;;17.22;72.96;95567.06;4367411;32;20179;-60
2022/09/12 08:13:56;;;;;;;0.73;0.73;;;;;;;17.00;74.89;95565.50;4384155;32;20207;-61
2022/09/12 08:16:27;;;;;;;0.83;0.83;;;;;;;16.79;75.46;95566.28;4386011;32;20206;-60
2022/09/12 08:18:53;;;;;;;17.00;12.50;;;;;;;16.64;76.18;95568.75;4378771;32;20220;-60
2022/09/12 08:21:25;;;;;;;8.90;6.57;;;;;;;16.53;77.29;95573.66;4395490;32;20185;-60
2022/09/12 08:23:56;;;;;;;4.30;4.00;;;;;;;16.43;78.67;95572.13;4381072;32;20181;-67
2022/09/12 08:26:23;;;;;;;0.67;0.67;;;;;;;16.29;79.82;95571.59;4392717;32;20195;-62
2022/09/12 08:28:49;;;;;;;0.77;0.77;;;;;;;16.38;77.72;95561.62;4390535;32;20180;-60
2022/09/12 08:31:18;;;;;;;1.00;1.00;;;;;;;16.44;80.50;95567.56;4402246;32;20196;-59
2022/09/12 08:33:45;;;;;;;0.43;0.43;;;;;;;16.50;78.05;95569.75;4368831;32;20268;-59
2022/09/12 08:36:43;;;;;;;0.77;0.77;;;;;;;16.46;77.68;95568.81;4395970;32;20271;-61
2022/09/12 08:39:11;;;;;;;0.60;0.60;;;;;;;16.41;78.49;95570.91;4399660;32;20176;-60
2022/09/12 08:41:41;;;;;;;9.73;0.73;;;;;;;16.43;78.95;95563.31;4395533;32;20183;-61
2022/09/12 08:44:33;;;;;;;0.57;0.57;;;;;;;16.47;79.36;95570.38;4410820;32;20180;-62
2022/09/12 08:47:37;;;;;;;0.70;0.70;;;;;;;16.50;79.83;95566.28;4377471;32;20188;-61
2022/09/12 08:50:26;;;;;;;0.80;0.80;;;;;;;16.46;80.76;95566.13;4369402;32;20207;-61
2022/09/12 08:52:58;;;;;;;0.40;0.40;;;;;;;16.52;79.85;95571.31;4395538;32;20188;-60
2022/09/12 08:56:12;;;;;;;0.47;0.47;;;;;;;16.65;76.95;95568.41;4385221;32;20212;-60
2022/09/12 08:58:44;;;;;;;0.57;0.57;;;;;;;16.78;75.91;95562.03;4406537;32;20219;-60
2022/09/12 09:01:34;;;;;;;0.53;0.53;;;;;;;16.74;76.67;95568.38;4347900;32;20207;-60
2022/09/12 09:04:42;;;;;;;0.60;0.60;;;;;;;16.79;75.62;95566.28;4396427;32;20181;-60
2022/09/12 09:07:36;;;;;;;0.60;0.60;;;;;;;16.83;76.18;95561.81;4349756;32;20240;-59
2022/09/12 09:10:29;;;;;;;0.40;0.40;;;;;;;16.83;77.30;95559.13;4360689;32;20207;-60
2022/09/12 09:16:30;;;;;;;0.50;0.50;;;;;;;16.91;76.41;95552.16;4404154;32;20194;-59
2022/09/12 09:19:08;;;;;;;0.60;0.60;;;;;;;17.14;73.71;95549.91;4378458;32;20251;-59
2022/09/12 09:22:03;;;;;;;0.40;0.40;;;;;;;17.32;73.79;95550.53;4383249;32;20259;-58
2022/09/12 09:24:40;;;;;;;0.53;0.53;;;;;;;17.30;73.23;95553.56;4406433;32;20268;-60
2022/09/12 09:27:34;;;;;;;0.90;0.63;;;;;;;17.34;72.06;95545.62;4388211;32;20191;-60
2022/09/12 09:30:02;;;;;;;0.77;0.77;;;;;;;17.42;72.02;95548.25;4380858;32;20196;-61
2022/09/12 09:32:36;;;;;;;0.87;0.87;;;;;;;17.40;72.44;95541.63;4385826;32;20245;-59
2022/09/12 09:35:27;;;;;;;0.33;0.33;;;;;;;17.41;71.65;95537.84;4388564;32;20181;-59
2022/09/12 09:38:36;;;;;;;0.33;0.33;;;;;;;17.37;72.03;95542.28;4372926;32;20200;-64
2022/09/12 09:41:34;;;;;;;0.63;0.63;;;;;;;17.33;73.04;95538.69;4384429;32;20203;-59
2022/09/12 09:44:02;;;;;;;0.53;0.53;;;;;;;17.57;70.18;95540.66;4372494;32;20210;-60
2022/09/12 09:46:31;;;;;;;0.47;0.47;;;;;;;17.67;70.91;95530.31;4391822;32;20228;-58
2022/09/12 09:49:11;;;;;;;0.43;0.43;;;;;;;17.65;70.47;95534.47;4405680;32;20188;-61
2022/09/12 09:51:40;;;;;;;1.33;1.27;;;;;;;17.66;69.87;95536.81;4410356;32;20192;-59
2022/09/12 09:54:18;;;;;;;0.53;0.53;;;;;;;17.67;70.89;95530.31;4369703;32;20270;-59
2022/09/12 09:56:45;;;;;;;1.80;1.70;;;;;;;17.64;71.76;95525.63;4382150;32;20195;-60
2022/09/12 09:59:30;;;;;;;2.63;2.43;;;;;;;17.61;72.95;95536.22;4386410;32;21673;-59
2022/09/12 10:02:19;;;;;;;1.30;1.10;;;;;;;17.59;72.90;95536.53;4387652;32;20195;-59
2022/09/12 10:05:00;;;;;;;1.17;1.17;;;;;;;17.89;71.30;95531.00;4386424;32;20204;-59
2022/09/12 10:07:26;;;;;;;0.83;0.83;;;;;;;18.01;70.26;95531.81;4378502;32;20200;-59
2022/09/12 10:10:17;;;;;;;1.77;1.03;;;;;;;17.98;70.75;95534.37;4419084;32;20207;-60
2022/09/12 10:12:44;;;;;;;0.60;0.60;;;;;;;18.02;70.34;95535.28;4384000;32;20042;-59
2022/09/12 10:15:25;;;;;;;0.80;0.80;;;;;;;18.04;70.21;95533.84;4373604;32;20187;-60
2022/09/12 10:17:54;;;;;;;0.87;0.73;;;;;;;18.19;66.10;95529.69;4407243;32;20213;-61
2022/09/12 10:20:41;;;;;;;0.17;0.17;;;;;;;18.32;65.68;95523.19;4392868;32;20184;-60
2022/09/12 10:23:40;;;;;;;0.50;0.50;;;;;;;18.31;67.09;95521.63;4358696;32;20214;-60
2022/09/12 10:26:32;;;;;;;0.77;0.77;;;;;;;18.35;67.13;95522.50;4387211;32;20229;-60
2022/09/12 10:29:03;;;;;;;0.40;0.40;;;;;;;18.35;67.52;95517.16;4401291;32;20299;-60
2022/09/12 10:31:54;;;;;;;0.40;0.40;;;;;;;18.28;69.22;95516.94;4360781;32;20184;-59
2022/09/12 10:34:29;;;;;;;0.40;0.40;;;;;;;18.27;68.60;95515.38;4385084;32;20192;-60
2022/09/12 10:37:22;;;;;;;0.80;0.80;;;;;;;18.40;68.04;95508.06;4402340;32;20211;-60
2022/09/12 10:39:58;;;;;;;0.67;0.67;;;;;;;18.44;66.61;95504.37;4338767;32;20210;-60
2022/09/12 10:42:53;;;;;;;0.40;0.40;;;;;;;18.57;67.51;95507.81;4395743;32;20188;-60
2022/09/12 10:45:29;;;;;;;0.40;0.40;;;;;;;18.62;66.59;95512.22;4361046;32;20192;-67
2022/09/12 10:47:59;;;;;;;0.87;0.87;;;;;;;18.64;66.12;95508.06;4372221;32;20183;-60
2022/09/12 10:50:52;;;;;;;0.70;0.70;;;;;;;18.69;65.33;95510.53;4420201;32;20188;-60
2022/09/12 10:53:42;;;;;;;0.80;0.80;;;;;;;18.75;64.54;95508.34;4385209;32;20232;-59
2022/09/12 10:56:33;;;;;;;0.80;0.80;;;;;;;18.78;64.79;95502.31;4389321;32;20284;-59
2022/09/12 10:59:33;;;;;;;2.30;1.23;;;;;;;18.83;62.83;95502.84;4383538;32;20226;-60
2022/09/12 11:02:26;;;;;;;0.60;0.60;;;;;;;18.90;63.33;95509.56;4363969;32;20227;-60
2022/09/12 11:05:10;;;;;;;0.67;0.67;;;;;;;18.89;62.96;95503.41;4374259;32;20200;-60
2022/09/12 11:08:17;;;;;;;0.73;0.73;;;;;;;18.84;62.93;95498.25;4356713;32;20251;-60
2022/09/12 11:11:01;;;;;;;0.73;0.73;;;;;;;18.80;63.07;95494.69;4372781;32;20251;-59
2022/09/12 11:13:51;;;;;;;0.20;0.20;;;;;;;18.93;63.33;95493.50;4358886;32;20185;-60
2022/09/12 11:16:44;;;;;;;0.40;0.40;;;;;;;18.98;63.87;95493.28;4348482;32;20188;-60
2022/09/12 11:19:49;;;;;;;0.60;0.60;;;;;;;18.99;63.86;95496.75;4352751;32;20226;-60
2022/09/12 11:22:55;;;;;;;0.43;0.43;;;;;;;18.97;63.11;95491.72;4362927;32;20238;-60
2022/09/12 11:26:00;;;;;;;1.97;1.87;;;;;;;18.99;62.96;95497.53;4351951;32;20192;-66
2022/09/12 11:29:05;;;;;;;5.23;1.97;;;;;;;18.93;62.77;95493.50;4355602;32;20216;-58
2022/09/12 11:31:48;;;;;;;0.83;0.83;;;;;;;18.98;63.11;95487.91;4356530;32;20264;-59
2022/09/12 11:34:27;;;;;;;0.53;0.53;;;;;;;19.09;63.84;95483.59;4353544;32;20260;-59
2022/09/12 11:37:25;;;;;;;0.40;0.40;;;;;;;19.20;64.02;95481.97;4351868;32;20188;-60
2022/09/12 11:39:53;;;;;;;0.63;0.63;;;;;;;19.03;66.14;95484.19;4347481;32;20233;-59
2022/09/12 11:42:26;;;;;;;0.80;0.80;;;;;;;19.06;63.82;95484.28;4322681;32;20235;-61
2022/09/12 11:45:17;;;;;;;0.10;0.10;;;;;;;19.15;62.06;95479.53;4366336;32;20184;-59
2022/09/12 11:47:50;;;;;;;0.30;0.30;;;;;;;19.09;63.04;95480.91;4374899;32;20198;-58
2022/09/12 11:50:41;;;;;;;1.10;1.00;;;;;;;19.23;61.28;95475.13;4386745;32;20185;-58
2022/09/12 11:53:19;;;;;;;0.73;0.73;;;;;;;19.15;62.62;95476.03;4348917;32;20188;-58
2022/09/12 11:56:19;;;;;;;0.67;0.67;;;;;;;19.24;62.34;95482.06;4328058;32;20191;-58
2022/09/12 11:59:10;;;;;;;0.37;0.37;;;;;;;19.26;63.07;95481.72;4369128;32;20272;-59
2022/09/12 12:01:40;;;;;;;0.50;0.50;;;;;;;19.38;61.93;95477.03;4361915;32;20221;-58
2022/09/12 12:04:11;;;;;;;0.70;0.70;;;;;;;19.40;62.33;95472.09;4350914;32;20215;-58
2022/09/12 12:07:08;;;;;;;0.50;0.50;;;;;;;19.41;63.08;95470.97;4355914;32;20249;-58
2022/09/12 12:09:49;;;;;;;0.50;0.50;;;;;;;19.44;61.75;95461.44;4366696;32;20235;-60